Data for 06/19/2013

Time Sea-Level Adjusted Pressure Absolute Pressure Temperature Relative Humidity Dew Point   
(mb) (inHg) (mb) (inHg) (C) (F) (%) (C) (F)
00:05 1009 29.8 838 24.75 20.1 68.1 31 2.6 36.6
00:10 1009 29.8 838 24.75 20 67.9 31 2.6 36.6
00:15 1009 29.8 838 24.75 19.9 67.8 31 2.6 36.7
00:20 1009 29.8 838 24.75 19.8 67.6 32 2.7 36.9
00:25 1009 29.8 838 24.75 19.7 67.4 32 2.7 36.8
00:30 1009 29.8 838 24.75 19.6 67.4 32 2.7 36.9
00:35 1009 29.8 838 24.75 19.5 67 33 3 37.4
00:40 1009 29.8 838 24.75 19.3 66.8 33 2.9 37.2
00:45 1009 29.8 838 24.75 19.3 66.7 33 2.6 36.8
00:50 1009 29.8 838 24.75 19.3 66.7 32 2.2 35.9
00:55 1009 29.8 838 24.75 19.5 67 31 2 35.6
01:00 1008 29.77 838 24.75 19.4 66.9 31 2.2 35.9
01:05 1008 29.77 838 24.75 19.3 66.7 32 2.1 35.8
01:10 1008 29.77 837 24.72 19.2 66.5 32 2.2 35.9
01:15 1008 29.77 837 24.72 19.1 66.3 32 2.2 35.9
01:20 1008 29.77 837 24.72 18.9 66.1 32 2.2 36
01:25 1008 29.77 837 24.72 18.8 65.9 33 2.2 35.9
01:30 1008 29.77 837 24.72 18.8 65.8 33 2.1 35.8
01:35 1008 29.77 837 24.72 18.7 65.7 32 1.9 35.5
01:40 1008 29.77 837 24.72 18.8 65.8 32 1.7 35.1
01:45 1008 29.77 837 24.72 18.9 66 31 1.6 34.8
01:50 1008 29.77 837 24.72 18.9 66.1 31 1.4 34.6
01:55 1008 29.77 837 24.72 19 66.2 30 1.3 34.4
02:00 1008 29.77 837 24.72 19.1 66.4 30 1.1 34
02:05 1008 29.77 837 24.72 19.2 66.6 29 0.9 33.6
02:10 1008 29.77 837 24.72 19.3 66.7 29 0.8 33.4
02:15 1008 29.77 837 24.72 19.3 66.7 29 1 33.7
02:20 1008 29.77 837 24.72 19.2 66.5 28 0.6 33.1
02:25 1008 29.77 837 24.72 19.1 66.4 29 0.6 33.2
02:30 1008 29.77 837 24.72 19 66.1 29 0.7 33.2
02:35 1008 29.77 837 24.72 18.9 66 30 1.2 34.1
02:40 1008 29.77 837 24.72 18.4 65.1 31 1 33.8
02:45 1008 29.77 837 24.72 18.3 64.9 31 1.1 34
02:50 1008 29.77 837 24.72 17.9 64.2 33 1.5 34.7
02:55 1008 29.77 837 24.72 17.4 63.3 37 2.8 37
03:00 1008 29.77 837 24.72 16.9 62.5 41 3.8 38.8
03:05 1008 29.77 837 24.72 16.5 61.7 43 4.1 39.4
03:10 1008 29.77 837 24.72 16.3 61.3 43 3.8 38.8
03:15 1008 29.77 837 24.72 16.4 61.5 42 3.5 38.3
03:20 1008 29.77 837 24.72 16.2 61.2 43 3.7 38.6
03:25 1008 29.77 837 24.72 16.4 61.4 41 3.1 37.5
03:30 1008 29.77 837 24.72 16.8 62.2 37 2.2 36
03:35 1008 29.77 837 24.72 16.9 62.5 36 2 35.5
03:40 1008 29.77 837 24.72 17.4 63.2 32 0.8 33.4
03:45 1008 29.77 837 24.72 18 64.4 31 0.7 33.2
03:50 1008 29.77 837 24.72 17.9 64.2 32 1.3 34.3
03:55 1008 29.77 837 24.72 17.5 63.5 34 1.6 34.8
04:00 1008 29.77 837 24.72 17 62.7 35 1.5 34.7
04:05 1008 29.77 837 24.72 16.9 62.4 34 1.1 34
04:10 1008 29.77 837 24.72 17.1 62.8 33 0.9 33.6
04:15 1007 29.74 837 24.72 17.4 63.2 32 0.7 33.3
04:20 1007 29.74 837 24.72 17.7 63.8 32 0.9 33.6
04:25 1007 29.74 836 24.69 17.6 63.7 32 0.7 33.3
04:30 1007 29.74 836 24.69 17.9 64.2 31 0.7 33.3
04:35 1007 29.74 836 24.69 18 64.3 31 0.8 33.4
04:40 1007 29.74 837 24.72 18 64.3 32 1 33.8
04:45 1007 29.74 837 24.72 17.8 64.1 33 1.4 34.5
04:50 1007 29.74 837 24.72 17.5 63.5 34 1.6 34.8
04:55 1007 29.74 837 24.72 17.3 63.1 35 1.9 35.4
05:00 1007 29.74 836 24.69 17.2 62.9 36 2.1 35.7
05:05 1007 29.74 837 24.72 17.2 63 35 1.8 35.2
05:10 1007 29.74 837 24.72 17.2 63 36 2.3 36.1
05:15 1007 29.74 837 24.72 17 62.6 37 2.5 36.4
05:20 1008 29.77 837 24.72 16.9 62.3 42 4 39.2
05:25 1008 29.77 837 24.72 16.3 61.3 46 4.7 40.4
05:30 1008 29.77 837 24.72 15.9 60.7 42 3 37.4
05:35 1008 29.77 837 24.72 16.3 61.3 41 3.1 37.5
05:40 1007 29.74 837 24.72 16.4 61.5 41 3.2 37.7
05:45 1007 29.74 837 24.72 16.5 61.7 40 3.1 37.5
05:50 1007 29.74 837 24.72 16.6 61.8 40 3.1 37.5
05:55 1007 29.74 837 24.72 16.5 61.7 42 3.8 38.9
06:00 1007 29.74 837 24.72 16.2 61.1 42 3.3 37.9
06:05 1008 29.77 837 24.72 16.2 61.2 46 4.7 40.5
06:10 1008 29.77 837 24.72 16 60.8 44 3.7 38.6
06:15 1007 29.74 837 24.72 16.2 61.2 47 4.9 40.8
06:20 1007 29.74 837 24.72 16.2 61.2 44 4 39.2
06:25 1007 29.74 837 24.72 16.4 61.5 45 4.7 40.4
06:30 1007 29.74 837 24.72 16.4 61.6 45 4.6 40.4
06:35 1007 29.74 837 24.72 16.5 61.6 48 5.6 42
06:40 1007 29.74 837 24.72 16.1 61 50 5.8 42.4
06:45 1007 29.74 836 24.69 15.9 60.5 52 6.1 43
06:50 1007 29.74 836 24.69 16.2 61.2 44 4.1 39.3
06:55 1007 29.74 836 24.69 17 62.6 49 6.3 43.3
07:00 1007 29.74 836 24.69 16.9 62.3 52 7.1 44.8
07:05 1007 29.74 836 24.69 16.3 61.3 55 7.4 45.4
07:10 1007 29.74 837 24.72 16.1 60.9 58 8 46.4
07:15 1007 29.74 837 24.72 15.8 60.5 57 7.3 45.2
07:20 1007 29.74 837 24.72 16 60.8 56 7.3 45.2
07:25 1007 29.74 837 24.72 16 60.7 56 7.4 45.3
07:30 1007 29.74 837 24.72 15.9 60.5 57 7.5 45.4
07:35 1007 29.74 837 24.72 15.9 60.6 57 7.6 45.7
07:40 1008 29.77 837 24.72 16 60.8 57 7.7 45.8
07:45 1007 29.74 837 24.72 16.2 61.1 57 7.6 45.7
07:50 1007 29.74 837 24.72 16.3 61.3 56 7.5 45.5
07:55 1008 29.77 837 24.72 16.3 61.4 57 8 46.4
08:00 1008 29.77 837 24.72 16.4 61.5 58 8.2 46.8
08:05 1008 29.77 837 24.72 16.5 61.7 58 8.4 47.1
08:10 1007 29.74 837 24.72 16.3 61.3 61 8.8 47.8
08:15 1008 29.77 837 24.72 16.3 61.4 62 9.1 48.5
08:20 1007 29.74 837 24.72 16.5 61.7 61 9 48.2
08:25 1007 29.74 837 24.72 17 62.5 59 8.9 48.1
08:30 1007 29.74 837 24.72 17.2 62.9 57 8.8 47.8
08:35 1008 29.77 837 24.72 17.6 63.7 55 8.6 47.5
08:40 1007 29.74 837 24.72 17.9 64.2 53 8.2 46.8
08:45 1007 29.74 837 24.72 17.9 64.3 54 8.5 47.3
08:50 1007 29.74 837 24.72 17.9 64.2 54 8.5 47.2
08:55 1007 29.74 837 24.72 17.4 63.3 57 9 48.2
09:00 1007 29.74 837 24.72 17.2 62.9 56 8.3 47
09:05 1007 29.74 837 24.72 18.1 64.5 55 8.9 48.1
09:10 1007 29.74 837 24.72 18.2 64.8 54 8.9 48
09:15 1007 29.74 837 24.72 18.4 65.1 52 8.6 47.5
09:20 1007 29.74 837 24.72 18.7 65.7 51 8.6 47.5
09:25 1007 29.74 837 24.72 19 66.1 50 8.6 47.4
09:30 1007 29.74 837 24.72 19.2 66.6 49 8.4 47.2
09:35 1007 29.74 837 24.72 19.9 67.7 48 8.6 47.5
09:40 1007 29.74 837 24.72 19.9 67.9 52 10 50
09:45 1007 29.74 837 24.72 19.1 66.3 50 8.7 47.6
09:50 1007 29.74 837 24.72 20 67.9 47 8.5 47.3
09:55 1007 29.74 837 24.72 19.2 66.6 49 8.5 47.2
10:00 1007 29.74 837 24.72 19.7 67.5 46 7.9 46.2
10:05 1007 29.74 837 24.72 20.6 69 46 8.6 47.4
10:10 1007 29.74 836 24.69 20.7 69.2 45 8.6 47.5
10:15 1007 29.74 836 24.69 20.6 69 43 7.8 46.1
10:20 1007 29.74 836 24.69 20.7 69.2 45 8.4 47
10:25 1007 29.74 836 24.69 20.2 68.3 47 8.7 47.6
10:30 1007 29.74 836 24.69 20.3 68.5 44 7.7 45.8
10:35 1007 29.74 836 24.69 20.9 69.5 43 8 46.3
10:40 1007 29.74 836 24.69 20.8 69.4 42 7.5 45.5
10:45 1007 29.74 836 24.69 21.6 70.9 41 7.9 46.2
10:50 1007 29.74 836 24.69 21.8 71.2 39 7.4 45.3
10:55 1007 29.74 836 24.69 21.6 70.9 39 7.3 45.1
11:00 1007 29.74 836 24.69 22.5 72.5 39 8.2 46.8
11:05 1007 29.74 836 24.69 22.8 73 37 7.4 45.4
11:10 1007 29.74 836 24.69 21.4 70.6 41 7.9 46.2
11:15 1007 29.74 836 24.69 21.7 71 42 8.5 47.3
11:20 1007 29.74 836 24.69 22 71.5 39 7.7 45.8
11:25 1007 29.74 836 24.69 22.3 72.1 39 8 46.3
11:30 1007 29.74 836 24.69 22.9 73.2 38 8.2 46.7
11:35 1007 29.74 836 24.69 23.6 74.5 39 9.1 48.4
11:40 1007 29.74 836 24.69 23.2 73.8 38 8.2 46.8
11:45 1007 29.74 836 24.69 23.2 73.7 39 8.8 47.8
11:50 1007 29.74 836 24.69 22.7 72.9 39 8.4 47.1
11:55 1007 29.74 836 24.69 22.1 71.8 40 8.1 46.5
12:00 1007 29.74 836 24.69 23 73.3 37 7.8 46.1
12:05 1007 29.74 836 24.69 23.1 73.6 36 7.5 45.5
12:10 1007 29.74 836 24.69 22.1 71.7 39 7.7 45.9
12:15 1007 29.74 836 24.69 22.8 73 38 7.8 46.1
12:20 1007 29.74 836 24.69 22.4 72.4 41 8.8 47.9
12:25 1007 29.74 836 24.69 22.4 72.3 38 7.7 45.8
12:30 1007 29.74 836 24.69 22.9 73.3 41 9 48.2
12:35 1007 29.74 836 24.69 23.9 75 37 8.5 47.4
12:40 1007 29.74 836 24.69 24.2 75.6 37 8.8 47.9
12:45 1007 29.74 836 24.69 24.6 76.3 37 9.2 48.6
12:50 1007 29.74 836 24.69 24.3 75.8 37 9.1 48.4
12:55 1007 29.74 836 24.69 24.4 75.9 37 9.1 48.4
13:00 1007 29.74 836 24.69 23.6 74.5 38 8.8 47.9
13:05 1007 29.74 836 24.69 23.5 74.3 37 8.3 47
13:10 1007 29.74 836 24.69 23.4 74.2 40 9.2 48.6
13:15 1007 29.74 836 24.69 23.1 73.6 38 8.2 46.8
13:20 1007 29.74 836 24.69 23.4 74.1 37 8 46.4
13:25 1007 29.74 836 24.69 23.5 74.3 37 8 46.4
13:30 1007 29.74 836 24.69 23.6 74.5 36 7.8 46.1
13:35 1007 29.74 836 24.69 23.6 74.5 36 7.8 46.1
13:40 1007 29.74 836 24.69 23.5 74.3 35 7.4 45.4
13:45 1007 29.74 836 24.69 23.6 74.5 34 6.9 44.4
13:50 1006 29.71 836 24.69 23.8 74.8 32 6.1 43
13:55 1006 29.71 836 24.69 24.4 76 31 6.2 43.2
14:00 1006 29.71 836 24.69 23.9 75 31 5.8 42.5
14:05 1006 29.71 835 24.66 24 75.1 31 6 42.9
14:10 1006 29.71 835 24.66 24.3 75.8 30 6 42.7
14:15 1006 29.71 835 24.66 24.8 76.7 31 6.8 44.2
14:20 1006 29.71 835 24.66 24.8 76.7 35 8.4 47.2
14:25 1006 29.71 835 24.66 23.7 74.6 35 7.5 45.5
14:30 1006 29.71 835 24.66 23.9 74.9 33 6.7 44
14:35 1006 29.71 835 24.66 24.6 76.2 31 6.4 43.5
14:40 1006 29.71 835 24.66 25.1 77.1 30 6.6 43.8
14:45 1006 29.71 835 24.66 24.9 76.8 29 6 42.9
14:50 1006 29.71 835 24.66 25.1 77.2 28 5.7 42.3
14:55 1006 29.71 835 24.66 25.1 77.1 27 5.2 41.4
15:00 1006 29.71 835 24.66 25.3 77.6 27 5.3 41.6
15:05 1006 29.71 835 24.66 25.7 78.3 28 6.1 42.9
15:10 1006 29.71 835 24.66 24.8 76.7 32 7.3 45.1
15:15 1006 29.71 835 24.66 24.1 75.4 35 8.1 46.5
15:20 1006 29.71 835 24.66 23.3 74 37 8 46.5
15:25 1006 29.71 835 24.66 23.1 73.6 37 8 46.3
15:30 1006 29.71 835 24.66 22.8 73.1 39 8.3 46.9
15:35 1006 29.71 835 24.66 22.9 73.3 40 8.8 47.9
15:40 1006 29.71 835 24.66 22.7 72.9 39 8.2 46.7
15:45 1006 29.71 835 24.66 22.3 72.1 39 7.7 45.8
15:50 1006 29.71 835 24.66 22.3 72.1 38 7.4 45.4
15:55 1006 29.71 835 24.66 23 73.5 37 7.9 46.2
16:00 1006 29.71 835 24.66 22.8 73.1 38 8.1 46.5
16:05 1006 29.71 835 24.66 22.4 72.4 39 7.8 46.1
16:10 1006 29.71 835 24.66 22.5 72.5 37 7.4 45.4
16:15 1006 29.71 835 24.66 22.5 72.5 38 7.8 46
16:20 1006 29.71 836 24.69 22.3 72.2 38 7.6 45.7
16:25 1007 29.74 836 24.69 21.9 71.5 39 7.6 45.7
16:30 1007 29.74 837 24.72 21.6 70.8 28 2.6 36.7
16:35 1007 29.74 836 24.69 19.8 67.7 31 2.3 36.1
16:40 1007 29.74 836 24.69 19 66.3 31 1.9 35.4
16:45 1007 29.74 836 24.69 18.9 65.9 31 1.5 34.7
16:50 1007 29.74 836 24.69 19.4 67 29 1.2 34.2
16:55 1007 29.74 836 24.69 20.2 68.3 29 1.8 35.3
17:00 1008 29.77 837 24.72 20.3 68.5 30 2.5 36.5
17:05 1008 29.77 837 24.72 20 68.1 28 1.1 34
17:10 1008 29.77 837 24.72 19.4 67 29 1.1 34
17:15 1009 29.8 838 24.75 18.7 65.7 37 3.9 38.9
17:20 1009 29.8 838 24.75 17 62.5 40 3.3 38
17:25 1010 29.83 839 24.78 16.4 61.5 40 3 37.3
17:30 1010 29.83 839 24.78 16.3 61.3 41 3.1 37.6
17:35 1010 29.83 839 24.78 16.2 61.1 41 3.1 37.6
17:40 1010 29.83 839 24.78 16 60.7 42 3.1 37.6
17:45 1011 29.85 840 24.81 15.7 60.3 42 2.9 37.3
17:50 1011 29.85 840 24.81 15.7 60.2 42 2.7 36.9
17:55 1011 29.85 840 24.81 15.7 60.3 41 2.8 37
18:00 1012 29.88 841 24.83 15.7 60.2 42 3 37.4
18:05 1012 29.88 841 24.83 15.7 60.2 41 2.5 36.6
18:10 1012 29.88 841 24.83 15.3 59.5 47 4.2 39.5
18:15 1012 29.88 841 24.83 14.1 57.3 48 3.2 37.8
18:20 1012 29.88 841 24.83 14.2 57.5 46 2.7 36.9
18:25 1012 29.88 841 24.83 14.5 58 46 2.9 37.3
18:30 1012 29.88 841 24.83 14.5 58 47 3.4 38.2
18:35 1012 29.88 841 24.83 13.7 56.6 49 3.4 38.1
18:40 1012 29.88 841 24.83 13.5 56.2 46 2.2 36
18:45 1012 29.88 841 24.83 13.9 57.1 45 2.3 36.1
18:50 1012 29.88 841 24.83 14.2 57.6 46 2.9 37.2
18:55 1012 29.88 841 24.83 13.7 56.7 48 2.9 37.2
19:00 1012 29.88 841 24.83 13.5 56.3 48 2.8 37
19:05 1011 29.85 841 24.83 13.7 56.6 47 2.7 36.9
19:10 1012 29.88 841 24.83 13.4 56.2 48 2.6 36.7
19:15 1012 29.88 841 24.83 13.4 56 46 2 35.7
19:20 1012 29.88 841 24.83 13.4 56.1 46 2 35.5
19:25 1012 29.88 841 24.83 13.6 56.5 44 1.8 35.3
19:30 1012 29.88 841 24.83 14.1 57.4 43 1.9 35.4
19:35 1012 29.88 841 24.83 14.3 57.7 41 1.2 34.2
19:40 1012 29.88 841 24.83 14.3 57.7 40 0.9 33.7
19:45 1012 29.88 841 24.83 14.4 58 43 2.1 35.8
19:50 1012 29.88 841 24.83 14.2 57.5 42 1.4 34.6
19:55 1012 29.88 841 24.83 14.2 57.5 41 1.1 34
20:00 1012 29.88 841 24.83 14.3 57.8 39 0.6 33.1
20:05 1012 29.88 841 24.83 14.5 58 43 2 35.7
20:10 1012 29.88 841 24.83 14.1 57.3 39 0.5 32.9
20:15 1012 29.88 841 24.83 14.2 57.6 43 1.9 35.4
20:20 1012 29.88 841 24.83 13.9 56.9 46 2.5 36.4
20:25 1012 29.88 841 24.83 13.6 56.5 46 2.3 36.1
20:30 1012 29.88 841 24.83 13.2 55.7 49 2.6 36.7
20:35 1012 29.88 841 24.83 12.9 55.3 48 2.2 36
20:40 1012 29.88 841 24.83 12.9 55.2 43 0.8 33.5
20:45 1012 29.88 841 24.83 13.1 55.6 45 1.4 34.6
20:50 1012 29.88 841 24.83 12.7 54.8 43 0.3 32.6
20:55 1012 29.88 841 24.83 12.5 54.4 35 -2.5 27.5
21:00 1012 29.88 841 24.83 12.6 54.7 30 -4.4 24.1
21:05 1012 29.88 841 24.83 13.2 55.8 27 -5.3 22.4
21:10 1012 29.88 841 24.83 13.3 55.9 27 -5.3 22.4
21:15 1012 29.88 841 24.83 13.4 56 26 -5.7 21.7
21:20 1012 29.88 841 24.83 13.3 55.9 27 -5.4 22.3
21:25 1012 29.88 841 24.83 13.1 55.6 27 -5.3 22.5
21:30 1012 29.88 841 24.83 13 55.3 28 -4.8 23.3
21:35 1012 29.88 842 24.86 12.6 54.7 28 -5.3 22.4
21:40 1012 29.88 842 24.86 12.8 55 29 -5 23.1
21:45 1012 29.88 842 24.86 12.8 55 29 -4.7 23.6
21:50 1012 29.88 842 24.86 12.7 54.9 30 -4.3 24.3
21:55 1012 29.88 842 24.86 12.5 54.4 30 -4.4 24.1
22:00 1013 29.91 842 24.86 12.3 54.2 32 -4 24.8
22:05 1012 29.88 842 24.86 12.1 53.9 32 -4.2 24.4
22:10 1013 29.91 842 24.86 12.1 53.8 32 -4.1 24.7
22:15 1013 29.91 842 24.86 11.9 53.5 33 -3.8 25.1
22:20 1013 29.91 842 24.86 11.7 53.1 33 -3.8 25.2
22:25 1013 29.91 842 24.86 11.7 53 33 -4 24.8
22:30 1013 29.91 842 24.86 11.7 53.1 34 -3.7 25.4
22:35 1013 29.91 842 24.86 11.6 52.8 36 -3 26.6
22:40 1013 29.91 842 24.86 11.3 52.3 37 -2.8 26.9
22:45 1013 29.91 842 24.86 11.2 52.1 36 -3.4 25.9
22:50 1013 29.91 842 24.86 11.2 52.1 36 -3.3 26
22:55 1013 29.91 842 24.86 11.1 51.9 37 -3 26.6
23:00 1013 29.91 842 24.86 10.8 51.4 37 -3.2 26.2
23:05 1013 29.91 842 24.86 10.4 50.8 38 -3.4 26
23:10 1013 29.91 842 24.86 10.3 50.6 37 -3.7 25.3
23:15 1013 29.91 842 24.86 10.4 50.7 37 -3.5 25.7
23:20 1013 29.91 842 24.86 10.4 50.8 37 -3.5 25.7
23:25 1013 29.91 842 24.86 10.6 51 38 -3.1 26.4
23:30 1013 29.91 842 24.86 10.4 50.7 39 -2.8 27
23:35 1013 29.91 842 24.86 10.2 50.3 40 -2.8 26.9
23:40 1013 29.91 842 24.86 10 49.9 41 -2.6 27.2
23:45 1013 29.91 842 24.86 9.7 49.5 42 -2.6 27.2
23:50 1013 29.91 842 24.86 9.6 49.3 43 -2.5 27.5
23:55 1013 29.91 842 24.86 9.6 49.2 43 -2.5 27.5
24:00 1013 29.91 842 24.86 9.5 49.1 43 -2.3 27.8